sensor_id;sensor_type;location;lat;lon;timestamp;pressure;altitude;pressure_sealevel;temperature;humidity
23261;BME280;11799;47.740;-3.390;2023-12-20T00:02:09;102762.50;;;8.59;100.00
23261;BME280;11799;47.740;-3.390;2023-12-20T00:04:34;102758.16;;;8.58;100.00
23261;BME280;11799;47.740;-3.390;2023-12-20T00:07:00;102751.34;;;8.52;100.00
23261;BME280;11799;47.740;-3.390;2023-12-20T00:09:26;102760.09;;;8.53;100.00
23261;BME280;11799;47.740;-3.390;2023-12-20T00:11:52;102764.63;;;8.49;100.00
23261;BME280;11799;47.740;-3.390;2023-12-20T00:14:17;102768.28;;;8.45;100.00
23261;BME280;11799;47.740;-3.390;2023-12-20T00:16:43;102766.75;;;8.40;100.00
23261;BME280;11799;47.740;-3.390;2023-12-20T00:19:08;102783.53;;;8.37;100.00
23261;BME280;11799;47.740;-3.390;2023-12-20T00:21:34;102783.69;;;8.33;100.00
23261;BME280;11799;47.740;-3.390;2023-12-20T00:24:00;102782.91;;;8.29;100.00
23261;BME280;11799;47.740;-3.390;2023-12-20T00:26:25;102790.97;;;8.24;100.00
23261;BME280;11799;47.740;-3.390;2023-12-20T00:28:51;102796.28;;;8.23;100.00
23261;BME280;11799;47.740;-3.390;2023-12-20T00:31:17;102803.22;;;8.25;100.00
23261;BME280;11799;47.740;-3.390;2023-12-20T00:33:42;102799.63;;;8.28;100.00
23261;BME280;11799;47.740;-3.390;2023-12-20T00:36:09;102793.50;;;8.27;100.00
23261;BME280;11799;47.740;-3.390;2023-12-20T00:38:35;102797.84;;;8.28;100.00
23261;BME280;11799;47.740;-3.390;2023-12-20T00:41:00;102798.59;;;8.32;100.00
23261;BME280;11799;47.740;-3.390;2023-12-20T00:43:26;102803.00;;;8.32;100.00
23261;BME280;11799;47.740;-3.390;2023-12-20T00:45:52;102802.91;;;8.35;100.00
23261;BME280;11799;47.740;-3.390;2023-12-20T00:48:17;102800.28;;;8.35;100.00
23261;BME280;11799;47.740;-3.390;2023-12-20T00:50:43;102793.13;;;8.38;100.00
23261;BME280;11799;47.740;-3.390;2023-12-20T00:53:08;102787.13;;;8.35;100.00
23261;BME280;11799;47.740;-3.390;2023-12-20T00:55:34;102786.34;;;8.31;100.00
23261;BME280;11799;47.740;-3.390;2023-12-20T00:57:59;102786.50;;;8.26;100.00
23261;BME280;11799;47.740;-3.390;2023-12-20T01:00:25;102791.78;;;8.26;100.00
23261;BME280;11799;47.740;-3.390;2023-12-20T01:02:51;102801.56;;;8.23;100.00
23261;BME280;11799;47.740;-3.390;2023-12-20T01:05:18;102793.81;;;8.18;100.00
23261;BME280;11799;47.740;-3.390;2023-12-20T01:07:44;102792.00;;;8.20;100.00
23261;BME280;11799;47.740;-3.390;2023-12-20T01:10:09;102794.69;;;8.19;100.00
23261;BME280;11799;47.740;-3.390;2023-12-20T01:12:36;102790.56;;;8.12;100.00
23261;BME280;11799;47.740;-3.390;2023-12-20T01:15:02;102795.81;;;8.12;100.00
23261;BME280;11799;47.740;-3.390;2023-12-20T01:17:27;102800.13;;;8.14;100.00
23261;BME280;11799;47.740;-3.390;2023-12-20T01:19:53;102799.38;;;8.11;100.00
23261;BME280;11799;47.740;-3.390;2023-12-20T01:22:18;102797.59;;;8.11;100.00
23261;BME280;11799;47.740;-3.390;2023-12-20T01:24:44;102793.94;;;8.15;100.00
23261;BME280;11799;47.740;-3.390;2023-12-20T01:27:09;102793.88;;;8.17;100.00
23261;BME280;11799;47.740;-3.390;2023-12-20T01:29:35;102800.16;;;8.13;100.00
23261;BME280;11799;47.740;-3.390;2023-12-20T01:32:01;102798.34;;;8.15;100.00
23261;BME280;11799;47.740;-3.390;2023-12-20T01:34:26;102800.91;;;8.16;100.00
23261;BME280;11799;47.740;-3.390;2023-12-20T01:36:52;102803.59;;;8.15;100.00
23261;BME280;11799;47.740;-3.390;2023-12-20T01:39:17;102802.69;;;8.16;100.00
23261;BME280;11799;47.740;-3.390;2023-12-20T01:41:43;102804.41;;;8.17;100.00
23261;BME280;11799;47.740;-3.390;2023-12-20T01:44:08;102800.16;;;8.13;100.00
23261;BME280;11799;47.740;-3.390;2023-12-20T01:46:34;102805.38;;;8.14;100.00
23261;BME280;11799;47.740;-3.390;2023-12-20T01:49:00;102804.63;;;8.11;100.00
23261;BME280;11799;47.740;-3.390;2023-12-20T01:51:26;102806.13;;;8.18;100.00
23261;BME280;11799;47.740;-3.390;2023-12-20T01:53:54;102811.22;;;8.22;100.00
23261;BME280;11799;47.740;-3.390;2023-12-20T01:56:20;102807.69;;;8.23;100.00
23261;BME280;11799;47.740;-3.390;2023-12-20T01:58:47;102811.97;;;8.26;100.00
23261;BME280;11799;47.740;-3.390;2023-12-20T02:01:13;102826.81;;;8.28;100.00
23261;BME280;11799;47.740;-3.390;2023-12-20T02:03:42;102823.31;;;8.28;100.00
23261;BME280;11799;47.740;-3.390;2023-12-20T02:06:08;102824.97;;;8.31;100.00
23261;BME280;11799;47.740;-3.390;2023-12-20T02:08:35;102811.00;;;8.28;100.00
23261;BME280;11799;47.740;-3.390;2023-12-20T02:11:01;102808.38;;;8.28;100.00
23261;BME280;11799;47.740;-3.390;2023-12-20T02:13:27;102811.81;;;8.31;100.00
23261;BME280;11799;47.740;-3.390;2023-12-20T02:15:54;102805.63;;;8.32;100.00
23261;BME280;11799;47.740;-3.390;2023-12-20T02:18:20;102817.06;;;8.31;100.00
23261;BME280;11799;47.740;-3.390;2023-12-20T02:20:45;102812.78;;;8.28;100.00
23261;BME280;11799;47.740;-3.390;2023-12-20T02:23:11;102811.16;;;8.24;100.00
23261;BME280;11799;47.740;-3.390;2023-12-20T02:25:36;102824.16;;;8.28;100.00
23261;BME280;11799;47.740;-3.390;2023-12-20T02:28:03;102823.41;;;8.25;100.00
23261;BME280;11799;47.740;-3.390;2023-12-20T02:30:29;102833.13;;;8.23;100.00
23261;BME280;11799;47.740;-3.390;2023-12-20T02:32:55;102827.19;;;8.18;100.00
23261;BME280;11799;47.740;-3.390;2023-12-20T02:35:21;102828.19;;;8.14;100.00
23261;BME280;11799;47.740;-3.390;2023-12-20T02:37:46;102827.59;;;8.07;100.00
23261;BME280;11799;47.740;-3.390;2023-12-20T02:40:12;102830.94;;;8.11;100.00
23261;BME280;11799;47.740;-3.390;2023-12-20T02:42:38;102828.19;;;8.14;100.00
23261;BME280;11799;47.740;-3.390;2023-12-20T02:45:03;102835.28;;;8.12;100.00
23261;BME280;11799;47.740;-3.390;2023-12-20T02:47:29;102832.97;;;8.04;100.00
23261;BME280;11799;47.740;-3.390;2023-12-20T02:49:55;102838.50;;;7.97;100.00
23261;BME280;11799;47.740;-3.390;2023-12-20T02:52:24;102833.97;;;8.00;100.00
23261;BME280;11799;47.740;-3.390;2023-12-20T02:54:50;102838.34;;;8.01;100.00
23261;BME280;11799;47.740;-3.390;2023-12-20T02:57:15;102827.16;;;7.94;100.00
23261;BME280;11799;47.740;-3.390;2023-12-20T02:59:41;102826.31;;;7.94;100.00
23261;BME280;11799;47.740;-3.390;2023-12-20T03:02:06;102837.75;;;7.93;100.00
23261;BME280;11799;47.740;-3.390;2023-12-20T03:04:32;102826.34;;;7.92;100.00
23261;BME280;11799;47.740;-3.390;2023-12-20T03:06:57;102829.91;;;7.91;100.00
23261;BME280;11799;47.740;-3.390;2023-12-20T03:09:23;102822.00;;;7.91;100.00
23261;BME280;11799;47.740;-3.390;2023-12-20T03:11:48;102818.66;;;7.86;100.00
23261;BME280;11799;47.740;-3.390;2023-12-20T03:14:14;102816.63;;;7.94;100.00
23261;BME280;11799;47.740;-3.390;2023-12-20T03:16:39;102817.28;;;8.01;100.00
23261;BME280;11799;47.740;-3.390;2023-12-20T03:19:05;102825.06;;;8.04;100.00
23261;BME280;11799;47.740;-3.390;2023-12-20T03:21:30;102836.22;;;8.11;100.00
23261;BME280;11799;47.740;-3.390;2023-12-20T03:23:56;102842.47;;;8.08;100.00
23261;BME280;11799;47.740;-3.390;2023-12-20T03:26:21;102838.97;;;8.08;100.00
23261;BME280;11799;47.740;-3.390;2023-12-20T03:28:48;102815.16;;;8.11;100.00
23261;BME280;11799;47.740;-3.390;2023-12-20T03:31:14;102826.44;;;8.14;100.00
23261;BME280;11799;47.740;-3.390;2023-12-20T03:33:39;102825.34;;;8.20;100.00
23261;BME280;11799;47.740;-3.390;2023-12-20T03:36:05;102821.06;;;8.17;100.00
23261;BME280;11799;47.740;-3.390;2023-12-20T03:38:31;102829.72;;;8.21;100.00
23261;BME280;11799;47.740;-3.390;2023-12-20T03:40:56;102831.47;;;8.20;100.00
23261;BME280;11799;47.740;-3.390;2023-12-20T03:43:22;102823.69;;;8.17;100.00
23261;BME280;11799;47.740;-3.390;2023-12-20T03:45:47;102827.25;;;8.16;100.00
23261;BME280;11799;47.740;-3.390;2023-12-20T03:48:13;102815.91;;;8.14;100.00
23261;BME280;11799;47.740;-3.390;2023-12-20T03:50:39;102813.38;;;8.11;100.00
23261;BME280;11799;47.740;-3.390;2023-12-20T03:53:04;102811.66;;;8.10;100.00
23261;BME280;11799;47.740;-3.390;2023-12-20T03:55:30;102805.50;;;8.11;100.00
23261;BME280;11799;47.740;-3.390;2023-12-20T03:57:55;102805.69;;;8.07;100.00
23261;BME280;11799;47.740;-3.390;2023-12-20T04:00:21;102810.81;;;8.10;100.00
23261;BME280;11799;47.740;-3.390;2023-12-20T04:02:46;102810.81;;;8.10;100.00
23261;BME280;11799;47.740;-3.390;2023-12-20T04:05:12;102806.53;;;8.07;100.00
23261;BME280;11799;47.740;-3.390;2023-12-20T04:07:38;102811.66;;;8.10;100.00
23261;BME280;11799;47.740;-3.390;2023-12-20T04:10:04;102816.75;;;8.15;100.00
23261;BME280;11799;47.740;-3.390;2023-12-20T04:12:30;102806.19;;;8.16;100.00
23261;BME280;11799;47.740;-3.390;2023-12-20T04:14:56;102802.63;;;8.17;100.00
23261;BME280;11799;47.740;-3.390;2023-12-20T04:17:22;102801.66;;;8.20;100.00
23261;BME280;11799;47.740;-3.390;2023-12-20T04:19:49;102800.69;;;8.22;100.00
23261;BME280;11799;47.740;-3.390;2023-12-20T04:22:15;102812.19;;;8.20;100.00
23261;BME280;11799;47.740;-3.390;2023-12-20T04:24:40;102815.00;;;8.15;100.00
23261;BME280;11799;47.740;-3.390;2023-12-20T04:27:08;102816.72;;;8.16;100.00
23261;BME280;11799;47.740;-3.390;2023-12-20T04:29:34;102820.47;;;8.09;100.00
23261;BME280;11799;47.740;-3.390;2023-12-20T04:32:00;102824.97;;;8.07;100.00
23261;BME280;11799;47.740;-3.390;2023-12-20T04:34:25;102818.09;;;8.03;100.00
23261;BME280;11799;47.740;-3.390;2023-12-20T04:36:51;102822.59;;;8.00;100.00
23261;BME280;11799;47.740;-3.390;2023-12-20T04:39:17;102820.13;;;7.95;100.00
23261;BME280;11799;47.740;-3.390;2023-12-20T04:41:43;102810.63;;;7.91;100.00
23261;BME280;11799;47.740;-3.390;2023-12-20T04:44:08;102812.34;;;7.92;100.00
23261;BME280;11799;47.740;-3.390;2023-12-20T04:46:34;102815.13;;;7.87;100.00
23261;BME280;11799;47.740;-3.390;2023-12-20T04:48:59;102821.31;;;7.86;100.00
23261;BME280;11799;47.740;-3.390;2023-12-20T04:51:25;102815.25;;;7.84;100.00
23261;BME280;11799;47.740;-3.390;2023-12-20T04:53:50;102821.41;;;7.83;100.00
23261;BME280;11799;47.740;-3.390;2023-12-20T04:56:16;102821.50;;;7.80;100.00
23261;BME280;11799;47.740;-3.390;2023-12-20T04:58:42;102825.97;;;7.78;100.00
23261;BME280;11799;47.740;-3.390;2023-12-20T05:01:08;102823.38;;;7.77;100.00
23261;BME280;11799;47.740;-3.390;2023-12-20T05:03:34;102819.91;;;7.76;100.00
23261;BME280;11799;47.740;-3.390;2023-12-20T05:05:59;102820.00;;;7.73;100.00
23261;BME280;11799;47.740;-3.390;2023-12-20T05:08:25;102821.78;;;7.73;100.00
23261;BME280;11799;47.740;-3.390;2023-12-20T05:10:54;102815.59;;;7.74;100.00
23261;BME280;11799;47.740;-3.390;2023-12-20T05:13:20;102819.09;;;7.74;100.00
23261;BME280;11799;47.740;-3.390;2023-12-20T05:15:45;102818.38;;;7.69;100.00
23261;BME280;11799;47.740;-3.390;2023-12-20T05:18:11;102813.19;;;7.68;100.00
23261;BME280;11799;47.740;-3.390;2023-12-20T05:20:38;102814.94;;;7.67;100.00
23261;BME280;11799;47.740;-3.390;2023-12-20T05:23:03;102814.13;;;7.65;100.00
23261;BME280;11799;47.740;-3.390;2023-12-20T05:25:29;102817.72;;;7.62;100.00
23261;BME280;11799;47.740;-3.390;2023-12-20T05:27:54;102823.03;;;7.61;100.00
23261;BME280;11799;47.740;-3.390;2023-12-20T05:30:21;102820.47;;;7.59;100.00
23261;BME280;11799;47.740;-3.390;2023-12-20T05:32:46;102828.41;;;7.58;100.00
23261;BME280;11799;47.740;-3.390;2023-12-20T05:35:12;102827.59;;;7.56;100.00
23261;BME280;11799;47.740;-3.390;2023-12-20T05:37:38;102844.31;;;7.53;100.00
23261;BME280;11799;47.740;-3.390;2023-12-20T05:40:03;102845.31;;;7.51;100.00
23261;BME280;11799;47.740;-3.390;2023-12-20T05:42:29;102848.00;;;7.49;100.00
23261;BME280;11799;47.740;-3.390;2023-12-20T05:44:55;102847.94;;;7.51;100.00
23261;BME280;11799;47.740;-3.390;2023-12-20T05:47:20;102854.16;;;7.48;100.00
23261;BME280;11799;47.740;-3.390;2023-12-20T05:49:46;102850.63;;;7.49;100.00
23261;BME280;11799;47.740;-3.390;2023-12-20T05:52:11;102852.34;;;7.50;100.00
23261;BME280;11799;47.740;-3.390;2023-12-20T05:54:37;102852.44;;;7.47;100.00
23261;BME280;11799;47.740;-3.390;2023-12-20T05:57:03;102862.78;;;7.52;100.00
23261;BME280;11799;47.740;-3.390;2023-12-20T05:59:28;102854.97;;;7.50;100.00
23261;BME280;11799;47.740;-3.390;2023-12-20T06:01:54;102860.09;;;7.53;100.00
23261;BME280;11799;47.740;-3.390;2023-12-20T06:04:19;102854.78;;;7.55;100.00
23261;BME280;11799;47.740;-3.390;2023-12-20T06:06:45;102854.69;;;7.58;100.00
23261;BME280;11799;47.740;-3.390;2023-12-20T06:09:10;102859.94;;;7.58;100.00
23261;BME280;11799;47.740;-3.390;2023-12-20T06:11:36;102864.19;;;7.62;100.00
23261;BME280;11799;47.740;-3.390;2023-12-20T06:14:02;102855.47;;;7.61;100.00
23261;BME280;11799;47.740;-3.390;2023-12-20T06:16:27;102858.94;;;7.62;100.00
23261;BME280;11799;47.740;-3.390;2023-12-20T06:18:53;102865.97;;;7.61;100.00
23261;BME280;11799;47.740;-3.390;2023-12-20T06:21:18;102866.03;;;7.60;100.00
23261;BME280;11799;47.740;-3.390;2023-12-20T06:23:44;102867.84;;;7.58;100.00
23261;BME280;11799;47.740;-3.390;2023-12-20T06:26:09;102865.13;;;7.61;100.00
23261;BME280;11799;47.740;-3.390;2023-12-20T06:28:35;102867.69;;;7.62;100.00
23261;BME280;11799;47.740;-3.390;2023-12-20T06:31:00;102874.78;;;7.60;100.00
23261;BME280;11799;47.740;-3.390;2023-12-20T06:33:26;102878.38;;;7.58;100.00
23261;BME280;11799;47.740;-3.390;2023-12-20T06:35:52;102885.47;;;7.54;100.00
23261;BME280;11799;47.740;-3.390;2023-12-20T06:38:18;102880.19;;;7.56;100.00
23261;BME280;11799;47.740;-3.390;2023-12-20T06:40:44;102880.22;;;7.54;100.00
23261;BME280;11799;47.740;-3.390;2023-12-20T06:43:12;102895.09;;;7.55;100.00
23261;BME280;11799;47.740;-3.390;2023-12-20T06:45:37;102896.88;;;7.55;100.00
23261;BME280;11799;47.740;-3.390;2023-12-20T06:48:03;102899.44;;;7.56;100.00
23261;BME280;11799;47.740;-3.390;2023-12-20T06:50:29;102896.97;;;7.52;100.00
23261;BME280;11799;47.740;-3.390;2023-12-20T06:52:54;102892.75;;;7.48;100.00
23261;BME280;11799;47.740;-3.390;2023-12-20T06:55:20;102897.94;;;7.49;100.00
23261;BME280;11799;47.740;-3.390;2023-12-20T06:57:45;102909.47;;;7.45;100.00
23261;BME280;11799;47.740;-3.390;2023-12-20T07:00:11;102904.13;;;7.48;100.00
23261;BME280;11799;47.740;-3.390;2023-12-20T07:02:37;102906.75;;;7.48;100.00
23261;BME280;11799;47.740;-3.390;2023-12-20T07:05:03;102910.28;;;7.47;100.00
23261;BME280;11799;47.740;-3.390;2023-12-20T07:07:29;102918.25;;;7.44;100.00
23261;BME280;11799;47.740;-3.390;2023-12-20T07:09:55;102908.75;;;7.40;100.00
23261;BME280;11799;47.740;-3.390;2023-12-20T07:12:20;102904.34;;;7.41;100.00
23261;BME280;11799;47.740;-3.390;2023-12-20T07:14:46;102912.28;;;7.39;100.00
23261;BME280;11799;47.740;-3.390;2023-12-20T07:17:12;102905.22;;;7.41;100.00
23261;BME280;11799;47.740;-3.390;2023-12-20T07:19:40;102902.53;;;7.43;100.00
23261;BME280;11799;47.740;-3.390;2023-12-20T07:22:06;102903.59;;;7.37;100.00
23261;BME280;11799;47.740;-3.390;2023-12-20T07:24:33;102915.78;;;7.40;100.00
23261;BME280;11799;47.740;-3.390;2023-12-20T07:27:01;102901.97;;;7.33;100.00
23261;BME280;11799;47.740;-3.390;2023-12-20T07:29:27;102903.69;;;7.34;100.00
23261;BME280;11799;47.740;-3.390;2023-12-20T07:31:53;102901.88;;;7.36;100.00
23261;BME280;11799;47.740;-3.390;2023-12-20T07:34:22;102900.06;;;7.38;100.00
23261;BME280;11799;47.740;-3.390;2023-12-20T07:36:47;102900.09;;;7.37;100.00
23261;BME280;11799;47.740;-3.390;2023-12-20T07:39:14;102907.13;;;7.36;100.00
23261;BME280;11799;47.740;-3.390;2023-12-20T07:41:39;102912.38;;;7.36;100.00
23261;BME280;11799;47.740;-3.390;2023-12-20T07:44:05;102913.34;;;7.34;100.00
23261;BME280;11799;47.740;-3.390;2023-12-20T07:46:31;102908.09;;;7.34;100.00
23261;BME280;11799;47.740;-3.390;2023-12-20T07:48:57;102904.63;;;7.32;100.00
23261;BME280;11799;47.740;-3.390;2023-12-20T07:51:22;102900.91;;;7.39;100.00
23261;BME280;11799;47.740;-3.390;2023-12-20T07:53:48;102900.88;;;7.40;100.00
23261;BME280;11799;47.740;-3.390;2023-12-20T07:56:18;102892.78;;;7.46;100.00
23261;BME280;11799;47.740;-3.390;2023-12-20T07:58:43;102901.59;;;7.45;100.00
23261;BME280;11799;47.740;-3.390;2023-12-20T08:01:10;102895.66;;;7.39;100.00
23261;BME280;11799;47.740;-3.390;2023-12-20T08:03:36;102884.19;;;7.41;100.00
23261;BME280;11799;47.740;-3.390;2023-12-20T08:06:02;102887.59;;;7.45;100.00
23261;BME280;11799;47.740;-3.390;2023-12-20T08:08:28;102888.44;;;7.45;100.00
23261;BME280;11799;47.740;-3.390;2023-12-20T08:10:53;102890.22;;;7.45;100.00
23261;BME280;11799;47.740;-3.390;2023-12-20T08:13:19;102898.19;;;7.42;100.00
23261;BME280;11799;47.740;-3.390;2023-12-20T08:15:44;102898.09;;;7.45;100.00
23261;BME280;11799;47.740;-3.390;2023-12-20T08:18:10;102907.75;;;7.44;100.00
23261;BME280;11799;47.740;-3.390;2023-12-20T08:20:35;102913.81;;;7.46;100.00
23261;BME280;11799;47.740;-3.390;2023-12-20T08:23:01;102905.88;;;7.48;100.00
23261;BME280;11799;47.740;-3.390;2023-12-20T08:25:26;102905.84;;;7.49;100.00
23261;BME280;11799;47.740;-3.390;2023-12-20T08:27:52;102902.22;;;7.52;100.00
23261;BME280;11799;47.740;-3.390;2023-12-20T08:30:18;102904.84;;;7.52;100.00
23261;BME280;11799;47.740;-3.390;2023-12-20T08:32:48;102899.41;;;7.58;100.00
23261;BME280;11799;47.740;-3.390;2023-12-20T08:35:13;102894.91;;;7.61;100.00
23261;BME280;11799;47.740;-3.390;2023-12-20T08:37:39;102889.50;;;7.66;100.00
23261;BME280;11799;47.740;-3.390;2023-12-20T08:40:05;102894.50;;;7.74;100.00
23261;BME280;11799;47.740;-3.390;2023-12-20T08:42:31;102897.94;;;7.76;100.00
23261;BME280;11799;47.740;-3.390;2023-12-20T08:44:59;102895.22;;;7.79;100.00
23261;BME280;11799;47.740;-3.390;2023-12-20T08:47:25;102896.72;;;7.86;100.00
23261;BME280;11799;47.740;-3.390;2023-12-20T08:49:52;102904.47;;;7.90;100.00
23261;BME280;11799;47.740;-3.390;2023-12-20T08:52:24;102909.44;;;8.00;100.00
23261;BME280;11799;47.740;-3.390;2023-12-20T08:54:50;102915.16;;;8.11;100.00
23261;BME280;11799;47.740;-3.390;2023-12-20T08:57:22;102917.38;;;8.23;100.00
23261;BME280;11799;47.740;-3.390;2023-12-20T08:59:49;102919.75;;;8.31;100.00
23261;BME280;11799;47.740;-3.390;2023-12-20T09:02:14;102917.91;;;8.34;100.00
23261;BME280;11799;47.740;-3.390;2023-12-20T09:04:40;102923.16;;;8.34;100.00
23261;BME280;11799;47.740;-3.390;2023-12-20T09:07:06;102930.91;;;8.39;100.00
23261;BME280;11799;47.740;-3.390;2023-12-20T09:09:33;102935.25;;;8.40;100.00
23261;BME280;11799;47.740;-3.390;2023-12-20T09:11:58;102936.06;;;8.42;100.00
23261;BME280;11799;47.740;-3.390;2023-12-20T09:14:24;102937.78;;;8.43;100.00
23261;BME280;11799;47.740;-3.390;2023-12-20T09:16:50;102938.53;;;8.46;100.00
23261;BME280;11799;47.740;-3.390;2023-12-20T09:19:17;102930.63;;;8.46;100.00
23261;BME280;11799;47.740;-3.390;2023-12-20T09:21:43;102934.94;;;8.49;100.00
23261;BME280;11799;47.740;-3.390;2023-12-20T09:24:09;102941.75;;;8.54;100.00
23261;BME280;11799;47.740;-3.390;2023-12-20T09:26:34;102945.25;;;8.55;100.00
23261;BME280;11799;47.740;-3.390;2023-12-20T09:29:00;102946.84;;;8.59;100.00
23261;BME280;11799;47.740;-3.390;2023-12-20T09:31:25;102946.56;;;8.67;100.00
23261;BME280;11799;47.740;-3.390;2023-12-20T09:33:51;102946.50;;;8.68;100.00
23261;BME280;11799;47.740;-3.390;2023-12-20T09:36:16;102951.91;;;8.65;100.00
23261;BME280;11799;47.740;-3.390;2023-12-20T09:38:42;102936.00;;;8.67;100.00
23261;BME280;11799;47.740;-3.390;2023-12-20T09:41:07;102932.59;;;8.65;100.00
23261;BME280;11799;47.740;-3.390;2023-12-20T09:43:35;102927.09;;;8.71;100.00
23261;BME280;11799;47.740;-3.390;2023-12-20T09:46:05;102931.91;;;8.83;100.00
23261;BME280;11799;47.740;-3.390;2023-12-20T09:48:32;102921.91;;;8.92;100.00
23261;BME280;11799;47.740;-3.390;2023-12-20T09:50:58;102915.53;;;8.98;100.00
23261;BME280;11799;47.740;-3.390;2023-12-20T09:53:24;102910.84;;;9.06;100.00
23261;BME280;11799;47.740;-3.390;2023-12-20T09:55:58;102920.13;;;9.16;100.00
23261;BME280;11799;47.740;-3.390;2023-12-20T09:58:25;102912.16;;;9.18;100.00
23261;BME280;11799;47.740;-3.390;2023-12-20T10:00:51;102910.47;;;9.15;100.00
23261;BME280;11799;47.740;-3.390;2023-12-20T10:03:21;102924.13;;;9.25;100.00
23261;BME280;11799;47.740;-3.390;2023-12-20T10:05:50;102929.34;;;9.26;100.00
23261;BME280;11799;47.740;-3.390;2023-12-20T10:08:21;102923.22;;;9.26;100.00
23261;BME280;11799;47.740;-3.390;2023-12-20T10:10:47;102939.59;;;9.34;100.00
23261;BME280;11799;47.740;-3.390;2023-12-20T10:13:13;102944.81;;;9.36;100.00
23261;BME280;11799;47.740;-3.390;2023-12-20T10:15:38;102945.63;;;9.38;100.00
23261;BME280;11799;47.740;-3.390;2023-12-20T10:18:05;102955.13;;;9.42;100.00
23261;BME280;11799;47.740;-3.390;2023-12-20T10:20:31;102953.00;;;9.51;100.00
23261;BME280;11799;47.740;-3.390;2023-12-20T10:22:57;102956.31;;;9.56;100.00
23261;BME280;11799;47.740;-3.390;2023-12-20T10:25:24;102947.53;;;9.56;100.00
23261;BME280;11799;47.740;-3.390;2023-12-20T10:27:51;102955.34;;;9.59;100.00
23261;BME280;11799;47.740;-3.390;2023-12-20T10:30:33;102953.50;;;9.61;100.00
23261;BME280;11799;47.740;-3.390;2023-12-20T10:32:59;102947.19;;;9.65;100.00
23261;BME280;11799;47.740;-3.390;2023-12-20T10:35:24;102953.19;;;9.69;100.00
23261;BME280;11799;47.740;-3.390;2023-12-20T10:37:55;102950.38;;;9.73;100.00
23261;BME280;11799;47.740;-3.390;2023-12-20T10:40:21;102957.25;;;9.77;100.00
23261;BME280;11799;47.740;-3.390;2023-12-20T10:42:48;102954.53;;;9.79;100.00
23261;BME280;11799;47.740;-3.390;2023-12-20T10:45:13;102957.06;;;9.82;100.00
23261;BME280;11799;47.740;-3.390;2023-12-20T10:47:41;102959.53;;;9.85;100.00
23261;BME280;11799;47.740;-3.390;2023-12-20T10:50:08;102949.72;;;9.88;100.00
23261;BME280;11799;47.740;-3.390;2023-12-20T10:52:35;102941.72;;;9.90;100.00
23261;BME280;11799;47.740;-3.390;2023-12-20T10:55:01;102937.13;;;9.95;100.00
23261;BME280;11799;47.740;-3.390;2023-12-20T10:57:27;102924.59;;;10.00;100.00
23261;BME280;11799;47.740;-3.390;2023-12-20T10:59:54;102923.63;;;10.03;100.00
23261;BME280;11799;47.740;-3.390;2023-12-20T11:02:21;102915.56;;;10.06;100.00
23261;BME280;11799;47.740;-3.390;2023-12-20T11:04:53;102911.00;;;10.09;100.00
23261;BME280;11799;47.740;-3.390;2023-12-20T11:07:32;102906.19;;;10.19;100.00
23261;BME280;11799;47.740;-3.390;2023-12-20T11:10:15;102891.97;;;10.23;100.00
23261;BME280;11799;47.740;-3.390;2023-12-20T11:15:26;102873.94;;;10.33;100.00
23261;BME280;11799;47.740;-3.390;2023-12-20T11:17:56;102868.53;;;10.36;100.00
23261;BME280;11799;47.740;-3.390;2023-12-20T11:20:36;102858.59;;;10.41;100.00
23261;BME280;11799;47.740;-3.390;2023-12-20T11:23:02;102860.16;;;10.45;100.00
23261;BME280;11799;47.740;-3.390;2023-12-20T11:25:27;102867.09;;;10.47;100.00
23261;BME280;11799;47.740;-3.390;2023-12-20T11:28:12;102858.03;;;10.53;100.00
23261;BME280;11799;47.740;-3.390;2023-12-20T11:33:07;102848.63;;;10.66;100.00
23261;BME280;11799;47.740;-3.390;2023-12-20T11:35:34;102845.00;;;10.69;100.00
23261;BME280;11799;47.740;-3.390;2023-12-20T11:38:00;102829.13;;;10.69;100.00
23261;BME280;11799;47.740;-3.390;2023-12-20T11:40:26;102826.28;;;10.73;100.00
23261;BME280;11799;47.740;-3.390;2023-12-20T11:42:52;102827.72;;;10.80;100.00
23261;BME280;11799;47.740;-3.390;2023-12-20T11:45:24;102829.13;;;10.87;100.00
23261;BME280;11799;47.740;-3.390;2023-12-20T11:47:50;102815.78;;;10.90;100.00
23261;BME280;11799;47.740;-3.390;2023-12-20T11:50:17;102810.44;;;10.92;100.00
23261;BME280;11799;47.740;-3.390;2023-12-20T11:52:43;102806.00;;;10.93;100.00
23261;BME280;11799;47.740;-3.390;2023-12-20T11:55:09;102809.50;;;10.93;100.00
23261;BME280;11799;47.740;-3.390;2023-12-20T11:57:35;102799.44;;;11.00;100.00
23261;BME280;11799;47.740;-3.390;2023-12-20T12:00:05;102807.25;;;11.03;100.00
23261;BME280;11799;47.740;-3.390;2023-12-20T12:02:37;102793.16;;;11.02;100.00
23261;BME280;11799;47.740;-3.390;2023-12-20T12:05:03;102795.81;;;11.02;100.00
23261;BME280;11799;47.740;-3.390;2023-12-20T12:07:32;102783.66;;;10.98;100.00
23261;BME280;11799;47.740;-3.390;2023-12-20T12:09:57;102791.22;;;11.06;100.00
23261;BME280;11799;47.740;-3.390;2023-12-20T12:12:24;102788.50;;;11.07;100.00
23261;BME280;11799;47.740;-3.390;2023-12-20T12:14:50;102790.22;;;11.08;100.00
23261;BME280;11799;47.740;-3.390;2023-12-20T12:17:16;102800.78;;;11.08;100.00
23261;BME280;11799;47.740;-3.390;2023-12-20T12:19:43;102804.31;;;11.09;100.00
23261;BME280;11799;47.740;-3.390;2023-12-20T12:22:10;102794.59;;;11.09;100.00
23261;BME280;11799;47.740;-3.390;2023-12-20T12:24:47;102784.00;;;11.09;100.00
23261;BME280;11799;47.740;-3.390;2023-12-20T12:27:14;102788.28;;;11.12;100.00
23261;BME280;11799;47.740;-3.390;2023-12-20T12:29:39;102793.78;;;11.07;100.00
23261;BME280;11799;47.740;-3.390;2023-12-20T12:32:09;102783.28;;;11.06;100.00
23261;BME280;11799;47.740;-3.390;2023-12-20T12:34:35;102786.09;;;11.03;100.00
23261;BME280;11799;47.740;-3.390;2023-12-20T12:37:03;102773.00;;;11.00;100.00
23261;BME280;11799;47.740;-3.390;2023-12-20T12:39:29;102762.28;;;11.03;100.00